createdAt,value
2023-03-16T00:00:57.440Z,63.84
2023-03-16T00:03:46.512Z,63.87
2023-03-16T00:06:36.648Z,63.92
2023-03-16T00:09:32.018Z,63.93
2023-03-16T00:12:22.921Z,63.76
2023-03-16T00:15:11.959Z,63.81
2023-03-16T00:18:02.662Z,63.75
2023-03-16T00:20:52.864Z,63.56
2023-03-16T00:23:42.822Z,63.74
2023-03-16T00:26:31.801Z,63.65
2023-03-16T00:29:22.869Z,63.83
2023-03-16T00:32:11.682Z,63.64
2023-03-16T00:35:03.203Z,63.68
2023-03-16T00:37:52.871Z,63.96
2023-03-16T00:40:41.460Z,63.80
2023-03-16T00:43:32.385Z,63.45
2023-03-16T00:46:28.982Z,63.47
2023-03-16T00:49:17.850Z,63.60
2023-03-16T00:52:16.675Z,63.51
2023-03-16T00:55:10.833Z,63.68
2023-03-16T00:58:01.208Z,63.75
2023-03-16T01:00:51.293Z,63.90
2023-03-16T01:03:41.182Z,63.95
2023-03-16T01:06:29.724Z,63.94
2023-03-16T01:09:20.550Z,63.97
2023-03-16T01:12:11.756Z,64.04
2023-03-16T01:15:01.284Z,63.84
2023-03-16T01:17:49.810Z,63.83
2023-03-16T01:20:39.216Z,63.87
2023-03-16T01:23:30.480Z,63.82
2023-03-16T01:26:20.855Z,63.92
2023-03-16T01:29:10.086Z,63.86
2023-03-16T01:31:58.795Z,63.99
2023-03-16T01:34:47.974Z,64.25
2023-03-16T01:37:37.514Z,64.16
2023-03-16T01:40:37.918Z,64.26
2023-03-16T01:43:30.308Z,64.23
2023-03-16T01:46:24.411Z,64.10
2023-03-16T01:49:18.862Z,64.06
2023-03-16T01:52:12.465Z,63.90
2023-03-16T01:55:08.306Z,64.10
2023-03-16T01:57:57.523Z,64.21
2023-03-16T02:00:47.943Z,64.07
2023-03-16T02:03:44.523Z,64.26
2023-03-16T02:06:40.867Z,64.29
2023-03-16T02:09:31.859Z,63.96
2023-03-16T02:12:21.764Z,64.35
2023-03-16T02:15:16.488Z,64.60
2023-03-16T02:18:08.553Z,64.63
2023-03-16T02:21:06.744Z,64.42
2023-03-16T02:23:55.533Z,64.54
2023-03-16T02:26:52.395Z,64.51
2023-03-16T02:30:09.159Z,64.38
2023-03-16T02:33:06.886Z,64.45
2023-03-16T02:35:55.657Z,64.28
2023-03-16T02:38:46.046Z,64.35
2023-03-16T02:41:35.634Z,64.54
2023-03-16T02:44:29.399Z,64.36
2023-03-16T02:47:25.998Z,64.63
2023-03-16T02:50:15.539Z,64.76
2023-03-16T02:53:04.146Z,64.77
2023-03-16T02:55:53.693Z,64.76
2023-03-16T02:58:42.442Z,64.72
2023-03-16T03:01:36.653Z,64.90
2023-03-16T03:04:26.712Z,65.00
2023-03-16T03:07:17.507Z,65.15
2023-03-16T03:10:22.332Z,65.05
2023-03-16T03:13:12.852Z,64.96
2023-03-16T03:16:02.749Z,64.96
2023-03-16T03:18:53.874Z,64.75
2023-03-16T03:21:43.941Z,64.63
2023-03-16T03:24:32.795Z,64.75
2023-03-16T03:27:22.644Z,65.00
2023-03-16T03:30:15.689Z,65.11
2023-03-16T03:33:06.322Z,64.96
2023-03-16T03:35:56.712Z,65.06
2023-03-16T03:38:50.760Z,65.16
2023-03-16T03:41:41.681Z,65.03
2023-03-16T03:44:35.006Z,65.06
2023-03-16T03:47:24.045Z,64.80
2023-03-16T03:50:15.757Z,65.02
2023-03-16T03:53:17.669Z,64.96
2023-03-16T03:56:32.038Z,64.93
2023-03-16T03:59:21.991Z,64.75
2023-03-16T04:02:29.458Z,64.98
2023-03-16T04:05:19.140Z,65.15
2023-03-16T04:08:11.767Z,65.19
2023-03-16T04:11:01.421Z,65.27
2023-03-16T04:13:54.543Z,65.02
2023-03-16T04:16:44.359Z,65.15
2023-03-16T04:19:36.298Z,65.15
2023-03-16T04:22:26.715Z,65.11
2023-03-16T04:25:18.196Z,64.99
2023-03-16T04:28:09.477Z,64.96
2023-03-16T04:31:04.639Z,65.26
2023-03-16T04:33:57.808Z,65.13
2023-03-16T04:36:47.429Z,65.27
2023-03-16T04:39:36.124Z,65.23
2023-03-16T04:42:26.593Z,65.02
2023-03-16T04:45:17.945Z,64.87
2023-03-16T04:48:10.952Z,64.95
2023-03-16T04:51:01.487Z,65.02
2023-03-16T04:53:53.800Z,64.91
2023-03-16T04:56:53.021Z,64.97
2023-03-16T04:59:57.539Z,65.02
2023-03-16T05:03:11.458Z,65.10
2023-03-16T05:06:00.307Z,64.89
2023-03-16T05:08:51.189Z,65.03
2023-03-16T05:11:41.314Z,65.30
2023-03-16T05:14:36.472Z,65.32
2023-03-16T05:17:44.488Z,65.31
2023-03-16T05:20:36.581Z,65.32
2023-03-16T05:23:27.626Z,65.18
2023-03-16T05:26:22.109Z,65.30
2023-03-16T05:29:12.096Z,65.40
2023-03-16T05:32:01.718Z,65.32
2023-03-16T05:34:53.089Z,65.26
2023-03-16T05:37:45.333Z,65.30
2023-03-16T05:40:38.177Z,65.26
2023-03-16T05:43:37.242Z,65.31
2023-03-16T05:46:26.015Z,65.38
2023-03-16T05:49:16.075Z,65.40
2023-03-16T05:52:05.223Z,65.47
2023-03-16T05:54:58.324Z,65.60
2023-03-16T05:57:47.283Z,65.60
2023-03-16T06:00:38.245Z,65.87
2023-03-16T06:03:42.265Z,65.97
2023-03-16T06:06:34.720Z,65.96
2023-03-16T06:09:31.102Z,65.97
2023-03-16T06:12:21.308Z,66.04
2023-03-16T06:15:11.925Z,66.00
2023-03-16T06:18:00.945Z,66.07
2023-03-16T06:20:49.737Z,66.53
2023-03-16T06:23:39.890Z,66.47
2023-03-16T06:26:30.243Z,66.35
2023-03-16T06:29:20.892Z,66.47
2023-03-16T06:32:09.589Z,66.54
2023-03-16T06:35:02.431Z,66.43
2023-03-16T06:37:52.309Z,66.71
2023-03-16T06:40:55.005Z,66.86
2023-03-16T06:43:45.398Z,66.83
2023-03-16T06:46:35.757Z,66.81
2023-03-16T06:49:26.051Z,67.07
2023-03-16T06:52:14.995Z,67.17
2023-03-16T06:55:04.362Z,67.83
2023-03-16T06:57:55.866Z,67.60
2023-03-16T07:00:45.998Z,67.76
2023-03-16T07:03:36.251Z,67.80
2023-03-16T07:06:39.798Z,67.65
2023-03-16T07:09:28.889Z,67.47
2023-03-16T07:12:17.577Z,67.61
2023-03-16T07:15:07.271Z,67.72
2023-03-16T07:17:56.824Z,67.69
2023-03-16T07:20:48.761Z,68.12
2023-03-16T07:23:37.730Z,68.21
2023-03-16T07:26:28.413Z,68.22
2023-03-16T07:29:20.686Z,68.12
2023-03-16T07:32:10.154Z,68.46
2023-03-16T07:35:00.374Z,68.33
2023-03-16T07:37:54.149Z,68.53
2023-03-16T07:40:43.497Z,68.52
2023-03-16T07:43:40.015Z,68.41
2023-03-16T07:46:32.753Z,68.26
2023-03-16T07:49:22.205Z,68.33
2023-03-16T07:52:13.908Z,68.12
2023-03-16T07:55:05.439Z,68.24
2023-03-16T07:57:55.298Z,68.31
2023-03-16T08:00:51.152Z,68.37
2023-03-16T08:03:42.103Z,68.26
2023-03-16T08:06:31.094Z,68.32
2023-03-16T08:09:21.333Z,68.54
2023-03-16T08:12:12.289Z,68.48
2023-03-16T08:15:02.210Z,68.53
2023-03-16T08:17:54.397Z,69.39
2023-03-16T08:20:46.341Z,68.69
2023-03-16T08:23:36.146Z,68.39
2023-03-16T08:26:26.530Z,68.06
2023-03-16T08:29:21.181Z,67.80
2023-03-16T08:32:44.000Z,67.53
2023-03-16T08:36:03.160Z,66.82
2023-03-16T08:39:06.604Z,66.69
2023-03-16T08:42:02.600Z,66.21
2023-03-16T08:45:11.736Z,65.77
2023-03-16T08:51:31.122Z,65.27
2023-03-16T08:54:19.820Z,64.91
2023-03-16T08:57:09.256Z,64.53
2023-03-16T08:59:57.989Z,64.06
2023-03-16T09:02:48.155Z,63.64
2023-03-16T09:05:36.822Z,63.21
2023-03-16T09:08:27.065Z,63.13
2023-03-16T09:11:17.694Z,62.70
2023-03-16T09:14:07.394Z,62.42
2023-03-16T09:16:56.516Z,61.75
2023-03-16T09:19:51.667Z,61.64
2023-03-16T09:22:41.091Z,61.42
2023-03-16T09:25:30.879Z,60.75
2023-03-16T09:28:22.035Z,60.35
2023-03-16T09:31:18.323Z,60.04
2023-03-16T09:34:07.035Z,60.13
2023-03-16T09:36:57.617Z,59.57
2023-03-16T09:39:47.931Z,59.28
2023-03-16T09:42:38.952Z,58.61
2023-03-16T09:45:36.475Z,58.24
2023-03-16T09:48:28.567Z,57.64
2023-03-16T09:51:22.908Z,57.44
2023-03-16T09:54:22.803Z,57.03
2023-03-16T09:57:23.911Z,56.01
2023-03-16T10:00:19.472Z,55.65
2023-03-16T10:03:22.295Z,55.37
2023-03-16T10:06:15.398Z,54.86
2023-03-16T10:09:17.071Z,54.38
2023-03-16T10:12:08.995Z,53.82
2023-03-16T10:15:05.135Z,53.42
2023-03-16T10:17:59.393Z,52.92
2023-03-16T10:20:48.287Z,52.64
2023-03-16T10:23:40.260Z,52.30
2023-03-16T10:26:38.234Z,51.93
2023-03-16T10:29:33.128Z,51.35
2023-03-16T10:32:24.416Z,50.31
2023-03-16T10:35:26.480Z,50.13
2023-03-16T10:38:34.115Z,49.34
2023-03-16T10:41:28.262Z,49.32
2023-03-16T10:44:24.612Z,49.32
2023-03-16T10:47:25.015Z,48.78
2023-03-16T10:50:17.971Z,48.01
2023-03-16T10:53:19.353Z,48.54
2023-03-16T10:56:13.832Z,47.97
2023-03-16T10:59:03.414Z,47.27
2023-03-16T11:01:52.704Z,47.32
2023-03-16T11:04:42.913Z,47.35
2023-03-16T11:07:32.034Z,47.53
2023-03-16T11:10:29.434Z,47.48
2023-03-16T11:13:21.149Z,47.39
2023-03-16T11:16:24.737Z,46.72
2023-03-16T11:19:20.880Z,45.65
2023-03-16T11:22:15.447Z,44.99
2023-03-16T11:25:13.247Z,44.62
2023-03-16T11:28:14.512Z,43.38
2023-03-16T11:31:14.714Z,42.88
2023-03-16T11:34:03.499Z,42.23
2023-03-16T11:36:56.083Z,41.24
2023-03-16T11:39:57.847Z,41.25
2023-03-16T11:42:57.197Z,40.78
2023-03-16T11:45:53.204Z,40.74
2023-03-16T11:48:49.791Z,40.29
2023-03-16T11:51:45.817Z,39.55
2023-03-16T11:54:52.518Z,39.29
2023-03-16T11:57:53.963Z,38.63
2023-03-16T12:00:53.473Z,38.71
2023-03-16T12:04:07.512Z,37.96
2023-03-16T12:07:18.320Z,38.04
2023-03-16T12:10:22.312Z,37.71
2023-03-16T12:13:30.541Z,37.00
2023-03-16T12:16:23.237Z,36.65
2023-03-16T12:19:17.904Z,36.87
2023-03-16T12:22:16.819Z,36.52
2023-03-16T12:25:14.890Z,36.30
2023-03-16T12:28:11.975Z,35.59
2023-03-16T12:31:10.326Z,35.21
2023-03-16T12:34:09.632Z,35.29
2023-03-16T12:37:22.435Z,34.96
2023-03-16T12:40:27.022Z,34.59
2023-03-16T12:43:38.500Z,34.26
2023-03-16T12:46:37.717Z,34.07
2023-03-16T12:49:28.805Z,34.05
2023-03-16T12:52:17.456Z,33.97
2023-03-16T12:55:15.694Z,33.55
2023-03-16T12:58:07.579Z,33.54
2023-03-16T13:01:00.924Z,33.61
2023-03-16T13:03:51.816Z,33.13
2023-03-16T13:06:45.390Z,33.31
2023-03-16T13:09:38.271Z,32.74
2023-03-16T13:12:28.675Z,32.55
2023-03-16T13:15:29.622Z,32.15
2023-03-16T13:18:24.970Z,31.62
2023-03-16T13:21:20.952Z,31.60
2023-03-16T13:24:28.505Z,30.73
2023-03-16T13:27:24.260Z,31.12
2023-03-16T13:30:23.558Z,30.73
2023-03-16T13:33:20.790Z,30.73
2023-03-16T13:36:14.140Z,30.85
2023-03-16T13:39:07.790Z,30.68
2023-03-16T13:41:59.914Z,29.85
2023-03-16T13:44:48.585Z,29.88
2023-03-16T13:47:37.635Z,30.21
2023-03-16T13:50:26.377Z,30.12
2023-03-16T13:53:23.264Z,29.60
2023-03-16T13:56:15.833Z,29.63
2023-03-16T13:59:06.181Z,29.41
2023-03-16T14:01:59.687Z,29.33
2023-03-16T14:04:49.338Z,29.48
2023-03-16T14:07:38.614Z,29.54
2023-03-16T14:10:33.341Z,29.29
2023-03-16T14:13:36.264Z,29.11
2023-03-16T14:16:28.100Z,28.82
2023-03-16T14:19:20.232Z,28.66
2023-03-16T14:22:13.908Z,28.79
2023-03-16T14:25:05.147Z,28.98
2023-03-16T14:28:01.043Z,29.02
2023-03-16T14:30:54.712Z,28.94
2023-03-16T14:33:46.099Z,28.87
2023-03-16T14:36:37.331Z,28.63
2023-03-16T14:39:28.916Z,28.84
2023-03-16T14:42:22.553Z,28.84
2023-03-16T14:45:16.124Z,29.34
2023-03-16T14:48:08.657Z,29.30
2023-03-16T14:50:59.787Z,29.72
2023-03-16T14:53:48.689Z,29.75
2023-03-16T14:56:37.454Z,29.40
2023-03-16T14:59:26.159Z,29.19
2023-03-16T15:02:20.398Z,29.25
2023-03-16T15:05:11.494Z,28.89
2023-03-16T15:08:01.085Z,28.60
2023-03-16T15:10:50.812Z,28.70
2023-03-16T15:14:04.412Z,28.52
2023-03-16T15:16:54.524Z,28.83
2023-03-16T15:19:44.494Z,29.17
2023-03-16T15:22:36.885Z,29.03
2023-03-16T15:25:35.805Z,29.16
2023-03-16T15:28:25.952Z,28.84
2023-03-16T15:31:15.748Z,28.97
2023-03-16T15:34:04.505Z,28.89
2023-03-16T15:36:55.287Z,29.19
2023-03-16T15:39:44.225Z,29.52
2023-03-16T15:42:32.870Z,29.63
2023-03-16T15:45:23.694Z,29.95
2023-03-16T15:48:13.581Z,29.94
2023-03-16T15:51:05.336Z,30.08
2023-03-16T15:54:02.109Z,30.11
2023-03-16T15:56:54.550Z,30.36
2023-03-16T15:59:43.923Z,30.97
2023-03-16T16:02:33.453Z,30.95
2023-03-16T16:05:24.840Z,31.83
2023-03-16T16:08:13.959Z,32.17
2023-03-16T16:11:09.258Z,32.34
2023-03-16T16:14:00.312Z,32.77
2023-03-16T16:16:49.299Z,33.01
2023-03-16T16:19:39.265Z,33.71
2023-03-16T16:22:28.370Z,33.93
2023-03-16T16:25:17.401Z,34.52
2023-03-16T16:28:15.406Z,34.83
2023-03-16T16:31:13.037Z,35.09
2023-03-16T16:34:01.752Z,34.94
2023-03-16T16:36:51.610Z,35.31
2023-03-16T16:39:40.771Z,35.39
2023-03-16T16:42:30.298Z,35.94
2023-03-16T16:45:22.368Z,36.13
2023-03-16T16:48:29.934Z,36.29
2023-03-16T16:51:21.568Z,36.54
2023-03-16T16:54:17.871Z,36.62
2023-03-16T16:57:06.863Z,36.92
2023-03-16T16:59:56.038Z,37.31
2023-03-16T17:02:47.891Z,37.48
2023-03-16T17:05:37.539Z,37.45
2023-03-16T17:08:27.501Z,38.09
2023-03-16T17:11:22.260Z,38.03
2023-03-16T17:14:17.773Z,38.22
2023-03-16T17:17:13.334Z,38.41
2023-03-16T17:20:05.828Z,38.51
2023-03-16T17:22:56.130Z,38.87
2023-03-16T17:25:44.767Z,39.45
2023-03-16T17:28:39.120Z,39.32
2023-03-16T17:31:31.030Z,39.82
2023-03-16T17:34:22.817Z,39.77
2023-03-16T17:37:18.270Z,39.95
2023-03-16T17:40:07.649Z,40.11
2023-03-16T17:42:57.286Z,40.29
2023-03-16T17:45:47.786Z,40.49
2023-03-16T17:48:36.456Z,40.77
2023-03-16T17:51:25.986Z,40.89
2023-03-16T17:54:16.471Z,40.81
2023-03-16T17:57:05.489Z,41.16
2023-03-16T17:59:55.917Z,41.39
2023-03-16T18:02:49.694Z,41.38
2023-03-16T18:05:38.531Z,43.37
2023-03-16T18:08:29.553Z,42.07
2023-03-16T18:11:23.237Z,42.15
2023-03-16T18:14:25.288Z,42.50
2023-03-16T18:17:23.036Z,42.38
2023-03-16T18:20:22.106Z,42.52
2023-03-16T18:23:16.581Z,42.40
2023-03-16T18:26:06.991Z,42.50
2023-03-16T18:28:58.332Z,42.81
2023-03-16T18:31:48.499Z,42.81
2023-03-16T18:34:38.037Z,42.93
2023-03-16T18:37:28.375Z,42.91
2023-03-16T18:40:19.822Z,43.28
2023-03-16T18:43:15.495Z,43.43
2023-03-16T18:46:06.451Z,43.37
2023-03-16T18:48:57.894Z,43.49
2023-03-16T18:51:51.364Z,43.66
2023-03-16T18:54:40.091Z,43.82
2023-03-16T18:57:31.680Z,43.74
2023-03-16T19:00:22.838Z,43.98
2023-03-16T19:03:23.533Z,43.92
2023-03-16T19:06:19.665Z,43.98
2023-03-16T19:09:15.073Z,44.32
2023-03-16T19:12:05.852Z,44.39
2023-03-16T19:14:54.446Z,44.50
2023-03-16T19:17:44.057Z,44.40
2023-03-16T19:20:36.369Z,44.61
2023-03-16T19:23:29.575Z,44.73
2023-03-16T19:26:19.605Z,44.95
2023-03-16T19:29:08.346Z,44.81
2023-03-16T19:31:58.611Z,44.92
2023-03-16T19:34:47.798Z,45.05
2023-03-16T19:37:37.752Z,45.10
2023-03-16T19:40:27.034Z,45.17
2023-03-16T19:43:18.656Z,45.27
2023-03-16T19:46:07.749Z,45.37
2023-03-16T19:48:57.126Z,45.51
2023-03-16T19:51:47.034Z,45.62
2023-03-16T19:54:39.430Z,45.49
2023-03-16T19:57:30.307Z,45.68
2023-03-16T20:00:25.270Z,45.66
2023-03-16T20:03:14.929Z,45.69
2023-03-16T20:06:03.825Z,45.77
2023-03-16T20:08:53.431Z,45.82
2023-03-16T20:11:43.564Z,45.95
2023-03-16T20:14:34.719Z,45.90
2023-03-16T20:17:25.970Z,46.05
2023-03-16T20:20:24.726Z,46.13
2023-03-16T20:23:23.031Z,45.95
2023-03-16T20:26:18.790Z,45.98
2023-03-16T20:29:18.233Z,46.05
2023-03-16T20:32:15.570Z,46.01
2023-03-16T20:35:04.293Z,46.03
2023-03-16T20:37:54.155Z,46.09
2023-03-16T20:40:44.511Z,46.01
2023-03-16T20:43:34.021Z,45.96
2023-03-16T20:46:27.346Z,46.03
2023-03-16T20:49:32.733Z,45.89
2023-03-16T20:52:23.924Z,45.93
2023-03-16T20:55:16.374Z,45.89
2023-03-16T20:58:18.025Z,46.07
2023-03-16T21:01:07.079Z,45.66
2023-03-16T21:03:57.281Z,45.80
2023-03-16T21:06:48.794Z,45.85
2023-03-16T21:09:37.852Z,45.93
2023-03-16T21:12:29.894Z,45.82
2023-03-16T21:15:23.702Z,45.88
2023-03-16T21:18:18.833Z,45.67
2023-03-16T21:21:13.953Z,45.70
2023-03-16T21:24:03.615Z,45.61
2023-03-16T21:26:52.381Z,45.70
2023-03-16T21:29:41.536Z,45.81
2023-03-16T21:32:30.956Z,45.59
2023-03-16T21:35:20.298Z,45.83
2023-03-16T21:38:15.118Z,45.74
2023-03-16T21:41:04.563Z,46.05
2023-03-16T21:43:54.934Z,45.68
2023-03-16T21:46:44.473Z,45.61
2023-03-16T21:49:33.892Z,45.69
2023-03-16T21:52:25.024Z,45.65
2023-03-16T21:55:25.059Z,45.56
2023-03-16T21:58:14.135Z,45.46
2023-03-16T22:01:03.465Z,45.59
2023-03-16T22:03:54.894Z,45.67
2023-03-16T22:06:46.075Z,45.88
2023-03-16T22:09:35.090Z,45.78
2023-03-16T22:12:25.687Z,45.97
2023-03-16T22:15:16.027Z,45.85
2023-03-16T22:18:08.839Z,45.83
2023-03-16T22:20:59.520Z,46.00
2023-03-16T22:23:48.583Z,46.00
2023-03-16T22:26:37.814Z,46.13
2023-03-16T22:29:29.535Z,45.89
2023-03-16T22:32:23.015Z,45.99
2023-03-16T22:35:27.318Z,46.05
2023-03-16T22:38:16.527Z,45.90
2023-03-16T22:41:18.505Z,45.88
2023-03-16T22:44:15.300Z,45.49
2023-03-16T22:47:07.592Z,45.62
2023-03-16T22:49:57.177Z,45.56
2023-03-16T22:52:50.316Z,46.03
2023-03-16T22:55:41.182Z,45.77
2023-03-16T22:58:33.681Z,45.64
2023-03-16T23:01:24.620Z,45.89
2023-03-16T23:04:17.077Z,45.68
2023-03-16T23:07:12.693Z,45.41
2023-03-16T23:10:02.978Z,45.59
2023-03-16T23:12:53.537Z,45.43
2023-03-16T23:15:43.609Z,45.45
2023-03-16T23:18:32.185Z,45.59
2023-03-16T23:21:25.168Z,45.34
2023-03-16T23:24:14.856Z,45.41
2023-03-16T23:27:05.865Z,45.60
2023-03-16T23:29:54.959Z,45.77
2023-03-16T23:32:44.056Z,45.50
2023-03-16T23:35:33.894Z,45.51
2023-03-16T23:38:24.004Z,45.59
2023-03-16T23:41:14.741Z,45.53
2023-03-16T23:44:06.487Z,45.53
2023-03-16T23:46:55.597Z,45.42
2023-03-16T23:49:45.124Z,45.65
2023-03-16T23:52:33.772Z,45.60
2023-03-16T23:55:25.176Z,45.54
2023-03-16T23:58:15.986Z,45.79
